Terminal Aerodrome Forecast
Issued by NWS Austin/San Antonio, TX

Home | Current Version | Previous Version | Text Only | Print | Product List | Glossary On
Versions: 1 2 3 4 5 6 7 8 9 10 11 12 13 14 15 16
152
FTUS44 KEWX 210520
TAFDRT
TAF
KDRT 210520Z 2106/2206 12005KT P6SM SCT250
     FM211300 12005KT P6SM OVC010
     FM211800 13011KT P6SM OVC025
     FM212100 13012KT P6SM SCT250=

USA.gov is the U.S. government's official web portal to all federal, state and local government web resources and services.